createdAt,value
2019-01-05T00:00:02.461Z,0
2019-01-05T00:05:03.281Z,1
2019-01-05T00:10:02.696Z,1
2019-01-05T00:15:03.015Z,1
2019-01-05T00:20:02.454Z,1
2019-01-05T00:25:02.807Z,1
2019-01-05T00:30:03.152Z,1
2019-01-05T00:35:02.580Z,1
2019-01-05T00:45:02.773Z,1
2019-01-05T00:50:03.183Z,1
2019-01-05T00:55:02.499Z,1
2019-01-05T01:00:02.922Z,1
2019-01-05T01:10:02.534Z,1
2019-01-05T01:15:02.941Z,1
2019-01-05T01:20:03.516Z,1
2019-01-05T01:25:02.905Z,1
2019-01-05T01:30:03.283Z,1
2019-01-05T01:35:02.673Z,1
2019-01-05T01:40:03.111Z,1
2019-01-05T01:45:02.518Z,1
2019-01-05T01:50:02.861Z,1
2019-01-05T01:55:03.312Z,1
2019-01-05T02:00:02.639Z,1
2019-01-05T02:05:03.305Z,1
2019-01-05T02:10:02.788Z,1
2019-01-05T02:20:02.673Z,1
2019-01-05T02:30:02.625Z,1
2019-01-05T02:35:03.082Z,1
2019-01-05T02:40:02.572Z,1
2019-01-05T02:45:02.935Z,1
2019-01-05T02:50:03.307Z,1
2019-01-05T02:55:02.621Z,1
2019-01-05T03:00:03.030Z,1
2019-01-05T03:05:02.524Z,1
2019-01-05T03:10:02.999Z,1
2019-01-05T03:20:02.889Z,1
2019-01-05T03:25:03.308Z,1
2019-01-05T03:35:03.213Z,1
2019-01-05T03:40:02.670Z,1
2019-01-05T03:45:03.033Z,1
2019-01-05T03:50:04.193Z,1
2019-01-05T03:55:02.631Z,1
2019-01-05T04:00:03.020Z,1
2019-01-05T04:05:02.403Z,1
2019-01-05T04:10:02.891Z,1
2019-01-05T04:15:03.276Z,1
2019-01-05T04:20:02.639Z,1
2019-01-05T04:25:03.009Z,1
2019-01-05T04:30:02.404Z,1
2019-01-05T04:35:02.756Z,1
2019-01-05T04:40:03.221Z,1
2019-01-05T04:50:03.150Z,1
2019-01-05T04:55:02.667Z,1
2019-01-05T05:00:03.055Z,1
2019-01-05T05:05:02.443Z,1
2019-01-05T05:10:02.871Z,1
2019-01-05T05:15:03.223Z,1
2019-01-05T05:25:03.084Z,1
2019-01-05T05:30:02.401Z,1
2019-01-05T05:35:02.843Z,1
2019-01-05T05:40:03.328Z,1
2019-01-05T05:45:02.690Z,1
2019-01-05T05:55:02.612Z,1
2019-01-05T06:00:03.002Z,1
2019-01-05T06:10:02.975Z,1
2019-01-05T06:15:02.398Z,1
2019-01-05T06:20:02.828Z,1
2019-01-05T06:25:03.292Z,1
2019-01-05T06:30:02.730Z,1
2019-01-05T06:35:03.148Z,1
2019-01-05T06:45:03.241Z,1
2019-01-05T06:50:02.616Z,1
2019-01-05T06:55:02.941Z,1
2019-01-05T07:00:03.315Z,1
2019-01-05T07:05:02.732Z,2
2019-01-05T07:10:03.179Z,2
2019-01-05T07:15:02.582Z,3
2019-01-05T07:25:02.640Z,10
2019-01-05T07:30:02.993Z,21
2019-01-05T07:40:02.868Z,32
2019-01-05T07:45:03.315Z,42
2019-01-05T07:50:02.721Z,49
2019-01-05T07:55:03.208Z,69
2019-01-05T08:05:03.265Z,123
2019-01-05T08:10:02.741Z,157
2019-01-05T08:20:02.616Z,324
2019-01-05T08:25:02.960Z,372
2019-01-05T08:35:02.896Z,366
2019-01-05T08:40:03.370Z,387
2019-01-05T08:45:02.728Z,461
2019-01-05T08:50:03.132Z,623
2019-01-05T08:55:02.553Z,619
2019-01-05T09:05:02.514Z,913
2019-01-05T09:10:02.977Z,859
2019-01-05T09:20:02.915Z,940
2019-01-05T09:25:03.337Z,804
2019-01-05T09:30:02.669Z,940
2019-01-05T09:35:03.020Z,968
2019-01-05T09:40:02.468Z,967
2019-01-05T09:45:02.809Z,1000
2019-01-05T09:55:02.642Z,1000
2019-01-05T10:00:03.064Z,1000
2019-01-05T10:10:02.950Z,1000
2019-01-05T10:15:03.298Z,1000
2019-01-05T10:25:03.155Z,2000
2019-01-05T10:30:02.571Z,1000
2019-01-05T10:35:03.013Z,2000
2019-01-05T10:45:02.875Z,1000
2019-01-05T10:50:03.341Z,1000
2019-01-05T10:55:02.703Z,1000
2019-01-05T11:00:03.085Z,2000
2019-01-05T11:05:02.488Z,1000
2019-01-05T11:10:02.958Z,1000
2019-01-05T11:25:02.641Z,1000
2019-01-05T11:30:03.018Z,1000
2019-01-05T11:35:02.435Z,1000
2019-01-05T11:40:02.822Z,1000
2019-01-05T11:45:03.214Z,2000
2019-01-05T11:50:02.590Z,3000
2019-01-05T11:55:03.084Z,3000
2019-01-05T12:00:02.454Z,2000
2019-01-05T12:05:02.833Z,3000
2019-01-05T12:15:02.880Z,2000
2019-01-05T12:20:03.382Z,2000
2019-01-05T12:25:02.771Z,1000
2019-01-05T12:30:03.211Z,1000
2019-01-05T12:35:02.584Z,1000
2019-01-05T12:40:03.028Z,1000
2019-01-05T12:45:02.450Z,2000
2019-01-05T12:50:02.831Z,2000
2019-01-05T12:55:03.249Z,2000
2019-01-05T13:05:03.147Z,2000
2019-01-05T13:10:02.611Z,1000
2019-01-05T13:20:02.448Z,1000
2019-01-05T13:25:02.837Z,1000
2019-01-05T13:35:02.787Z,1000
2019-01-05T13:40:03.243Z,1000
2019-01-05T13:50:03.092Z,2000
2019-01-05T13:55:02.509Z,1000
2019-01-05T14:00:02.935Z,1000
2019-01-05T14:05:03.303Z,995
2019-01-05T14:10:02.713Z,886
2019-01-05T14:15:03.174Z,880
2019-01-05T14:20:02.572Z,832
2019-01-05T14:25:03.047Z,806
2019-01-05T14:30:02.436Z,757
2019-01-05T14:35:02.781Z,752
2019-01-05T14:40:03.154Z,752
2019-01-05T14:45:02.620Z,732
2019-01-05T14:50:02.987Z,648
2019-01-05T14:55:02.452Z,509
2019-01-05T15:00:02.856Z,478
2019-01-05T15:05:03.292Z,468
2019-01-05T15:10:02.811Z,448
2019-01-05T15:15:03.269Z,293
2019-01-05T15:20:02.606Z,202
2019-01-05T15:25:03.012Z,150
2019-01-05T15:30:02.434Z,85
2019-01-05T15:35:02.782Z,66
2019-01-05T15:40:03.274Z,56
2019-01-05T15:45:02.628Z,52
2019-01-05T15:50:03.249Z,46
2019-01-05T16:00:03.151Z,22
2019-01-05T16:05:02.577Z,14
2019-01-05T16:10:03.017Z,8
2019-01-05T16:15:02.400Z,4
2019-01-05T16:20:02.872Z,3
2019-01-05T16:25:03.354Z,1
2019-01-05T16:30:02.786Z,1
2019-01-05T16:35:03.107Z,1
2019-01-05T16:40:02.595Z,1
2019-01-05T16:45:03.009Z,1
2019-01-05T16:50:02.355Z,1
2019-01-05T17:00:03.192Z,1
2019-01-05T17:05:02.574Z,1
2019-01-05T17:10:03.021Z,1
2019-01-05T17:15:02.430Z,1
2019-01-05T17:20:02.806Z,1
2019-01-05T17:25:03.267Z,1
2019-01-05T17:30:02.619Z,1
2019-01-05T17:35:03.003Z,1
2019-01-05T17:45:03.086Z,1
2019-01-05T17:50:02.478Z,1
2019-01-05T17:55:02.909Z,1
2019-01-05T18:00:03.619Z,1
2019-01-05T18:05:02.997Z,1
2019-01-05T18:10:02.405Z,1
2019-01-05T18:15:02.833Z,1
2019-01-05T18:20:03.513Z,1
2019-01-05T18:25:02.929Z,1
2019-01-05T18:30:03.380Z,1
2019-01-05T18:35:02.841Z,1
2019-01-05T18:40:02.393Z,1
2019-01-05T18:45:02.921Z,1
2019-01-05T18:50:03.285Z,1
2019-01-05T18:55:02.704Z,1
2019-01-05T19:05:02.609Z,1
2019-01-05T19:10:03.047Z,1
2019-01-05T19:15:02.522Z,1
2019-01-05T19:20:02.910Z,1
2019-01-05T19:25:03.365Z,1
2019-01-05T19:30:02.758Z,1
2019-01-05T19:35:03.275Z,1
2019-01-05T19:40:02.850Z,1
2019-01-05T19:45:03.192Z,1
2019-01-05T19:50:02.670Z,1
2019-01-05T20:00:02.736Z,1
2019-01-05T20:05:03.267Z,1
2019-01-05T20:10:02.689Z,1
2019-01-05T20:15:03.147Z,1
2019-01-05T20:20:02.649Z,1
2019-01-05T20:25:03.067Z,1
2019-01-05T20:30:02.451Z,1
2019-01-05T20:35:02.898Z,1
2019-01-05T20:40:03.384Z,1
2019-01-05T20:55:03.010Z,1
2019-01-05T21:00:02.497Z,1
2019-01-05T21:05:02.919Z,1
2019-01-05T21:10:02.367Z,1
2019-01-05T21:15:02.871Z,1
2019-01-05T21:20:03.315Z,1
2019-01-05T21:25:02.779Z,1
2019-01-05T21:30:03.133Z,1
2019-01-05T21:35:02.637Z,1
2019-01-05T21:40:03.164Z,1
2019-01-05T21:45:02.494Z,1
2019-01-05T21:50:02.902Z,1
2019-01-05T21:55:03.319Z,1
2019-01-05T22:00:02.714Z,1
2019-01-05T22:05:03.143Z,1
2019-01-05T22:10:02.570Z,1
2019-01-05T22:15:02.918Z,1
2019-01-05T22:20:03.396Z,1
2019-01-05T22:25:02.773Z,1
2019-01-05T22:30:03.484Z,1
2019-01-05T22:35:02.849Z,1
2019-01-05T22:40:03.283Z,1
2019-01-05T22:45:02.693Z,1
2019-01-05T22:50:03.021Z,1
2019-01-05T22:55:02.800Z,1
2019-01-05T23:00:03.244Z,1
2019-01-05T23:05:02.621Z,0
2019-01-05T23:10:03.003Z,1
2019-01-05T23:15:02.395Z,1
2019-01-05T23:20:02.833Z,1
2019-01-05T23:25:03.172Z,1
2019-01-05T23:35:03.037Z,0
2019-01-05T23:40:02.456Z,1
2019-01-05T23:45:02.801Z,0
2019-01-05T23:50:03.279Z,0
2019-01-05T23:55:02.650Z,1
